KPIA/PIA METAR and TAF weather

Enter ICAO airport designator
Station Type Date Time Source
KPIA METAR 2022/11/30 09:54 UTC NOAA

KPIA 300954Z 28013G21KT 10SM CLR M04/M09 A3000 RMK AO2 SLP163 T10391094 $


Station Type Date Time Source
KPIA Decoded METAR 2022/11/30 09:54 UTC NOAA

GREATER PEORIA REGIONAL AIRPORT , IL, United States (KPIA) 40-40N 89-41W 205M
Nov 30, 2022 - 04:54 AM EST / 2022.11.30 0954 UTC
Wind: from the W (280 degrees) at 15 MPH (13 KT) gusting to 24 MPH (21 KT):0
Visibility: 10 mile(s):0
Sky conditions: clear
Temperature: 25.0 F (-3.9 C)
Windchill: 12 F (-11 C):1
Dew Point: 15.1 F (-9.4 C)
Relative Humidity: 65%
Pressure (altimeter): 30 in. Hg (1015 hPa)
ob: KPIA 300954Z 28013G21KT 10SM CLR M04/M09 A3000 RMK AO2 SLP163 T10391094
cycle: 10

Station Type Date Time Source
KPIA TAF 2022/11/30 06:24 UTC NOAA

TAF KPIA 300522Z 3006/0106 29016G28KT P6SM FEW120 SCT180
FM301500 28014G23KT P6SM FEW250
FM010000 28009KT P6SM SKC

Example: see airport list